sensor_id;sensor_type;location;lat;lon;timestamp;P1;durP1;ratioP1;P2;durP2;ratioP2
62475;SDS011;50739;45.670;11.936;2024-01-07T00:02:44;1.27;;;0.60;;
62475;SDS011;50739;45.670;11.936;2024-01-07T00:07:48;0.40;;;0.40;;
62475;SDS011;50739;45.670;11.936;2024-01-07T00:12:51;0.30;;;0.30;;
62475;SDS011;50739;45.670;11.936;2024-01-07T00:17:54;0.55;;;0.50;;
62475;SDS011;50739;45.670;11.936;2024-01-07T00:22:57;1.25;;;0.50;;
62475;SDS011;50739;45.670;11.936;2024-01-07T00:28:00;2.80;;;0.30;;
62475;SDS011;50739;45.670;11.936;2024-01-07T00:33:02;1.30;;;0.77;;
62475;SDS011;50739;45.670;11.936;2024-01-07T00:38:06;0.20;;;0.20;;
62475;SDS011;50739;45.670;11.936;2024-01-07T00:43:08;0.73;;;0.30;;
62475;SDS011;50739;45.670;11.936;2024-01-07T00:48:11;0.47;;;0.38;;
62475;SDS011;50739;45.670;11.936;2024-01-07T00:53:15;0.20;;;0.20;;
62475;SDS011;50739;45.670;11.936;2024-01-07T00:58:17;0.40;;;0.40;;
62475;SDS011;50739;45.670;11.936;2024-01-07T01:03:19;1.27;;;0.50;;
62475;SDS011;50739;45.670;11.936;2024-01-07T01:08:23;0.97;;;0.50;;
62475;SDS011;50739;45.670;11.936;2024-01-07T01:13:26;0.90;;;0.68;;
62475;SDS011;50739;45.670;11.936;2024-01-07T01:18:28;1.52;;;0.70;;
62475;SDS011;50739;45.670;11.936;2024-01-07T01:23:32;1.27;;;0.83;;
62475;SDS011;50739;45.670;11.936;2024-01-07T01:28:34;1.00;;;0.68;;
62475;SDS011;50739;45.670;11.936;2024-01-07T01:33:36;1.25;;;0.55;;
62475;SDS011;50739;45.670;11.936;2024-01-07T01:38:40;0.53;;;0.53;;
62475;SDS011;50739;45.670;11.936;2024-01-07T01:43:42;1.02;;;0.63;;
62475;SDS011;50739;45.670;11.936;2024-01-07T01:48:45;1.07;;;0.70;;
62475;SDS011;50739;45.670;11.936;2024-01-07T01:53:49;1.00;;;0.50;;
62475;SDS011;50739;45.670;11.936;2024-01-07T01:58:52;29.13;;;11.73;;
62475;SDS011;50739;45.670;11.936;2024-01-07T02:03:55;0.88;;;0.80;;
62475;SDS011;50739;45.670;11.936;2024-01-07T02:08:59;1.10;;;0.70;;
62475;SDS011;50739;45.670;11.936;2024-01-07T02:14:01;1.27;;;0.67;;
62475;SDS011;50739;45.670;11.936;2024-01-07T02:19:03;0.95;;;0.60;;
62475;SDS011;50739;45.670;11.936;2024-01-07T02:24:14;0.85;;;0.57;;
62475;SDS011;50739;45.670;11.936;2024-01-07T02:29:17;2.85;;;1.73;;
62475;SDS011;50739;45.670;11.936;2024-01-07T02:34:19;1.40;;;1.23;;
62475;SDS011;50739;45.670;11.936;2024-01-07T02:39:23;1.30;;;1.20;;
62475;SDS011;50739;45.670;11.936;2024-01-07T02:44:25;1.23;;;1.10;;
62475;SDS011;50739;45.670;11.936;2024-01-07T02:49:28;1.20;;;1.10;;
62475;SDS011;50739;45.670;11.936;2024-01-07T02:54:32;1.15;;;0.90;;
62475;SDS011;50739;45.670;11.936;2024-01-07T02:59:34;1.73;;;1.00;;
62475;SDS011;50739;45.670;11.936;2024-01-07T03:04:37;1.35;;;1.10;;
62475;SDS011;50739;45.670;11.936;2024-01-07T03:09:40;1.05;;;0.90;;
62475;SDS011;50739;45.670;11.936;2024-01-07T03:14:43;1.80;;;0.90;;
62475;SDS011;50739;45.670;11.936;2024-01-07T03:19:45;0.82;;;0.63;;
62475;SDS011;50739;45.670;11.936;2024-01-07T03:24:49;1.00;;;0.73;;
62475;SDS011;50739;45.670;11.936;2024-01-07T03:29:51;0.90;;;0.75;;
62475;SDS011;50739;45.670;11.936;2024-01-07T03:34:54;2.10;;;0.90;;
62475;SDS011;50739;45.670;11.936;2024-01-07T03:39:57;1.17;;;0.73;;
62475;SDS011;50739;45.670;11.936;2024-01-07T03:45:00;1.00;;;0.90;;
62475;SDS011;50739;45.670;11.936;2024-01-07T03:50:02;1.10;;;0.80;;
62475;SDS011;50739;45.670;11.936;2024-01-07T03:55:07;0.80;;;0.80;;
62475;SDS011;50739;45.670;11.936;2024-01-07T04:00:10;0.70;;;0.70;;
62475;SDS011;50739;45.670;11.936;2024-01-07T04:05:12;1.80;;;0.70;;
62475;SDS011;50739;45.670;11.936;2024-01-07T04:10:17;1.00;;;0.70;;
62475;SDS011;50739;45.670;11.936;2024-01-07T04:15:19;0.80;;;0.70;;
62475;SDS011;50739;45.670;11.936;2024-01-07T04:20:22;0.82;;;0.60;;
62475;SDS011;50739;45.670;11.936;2024-01-07T04:25:26;0.88;;;0.45;;
62475;SDS011;50739;45.670;11.936;2024-01-07T04:30:28;1.30;;;0.50;;
62475;SDS011;50739;45.670;11.936;2024-01-07T04:35:30;1.50;;;0.35;;
62475;SDS011;50739;45.670;11.936;2024-01-07T04:40:34;0.35;;;0.35;;
62475;SDS011;50739;45.670;11.936;2024-01-07T04:45:36;1.17;;;0.60;;
62475;SDS011;50739;45.670;11.936;2024-01-07T04:50:39;0.80;;;0.40;;
62475;SDS011;50739;45.670;11.936;2024-01-07T04:55:43;0.60;;;0.40;;
62475;SDS011;50739;45.670;11.936;2024-01-07T05:00:46;0.30;;;0.30;;
62475;SDS011;50739;45.670;11.936;2024-01-07T05:05:48;0.63;;;0.35;;
62475;SDS011;50739;45.670;11.936;2024-01-07T05:10:52;0.40;;;0.30;;
62475;SDS011;50739;45.670;11.936;2024-01-07T05:15:54;0.20;;;0.20;;
62475;SDS011;50739;45.670;11.936;2024-01-07T05:20:56;0.50;;;0.30;;
62475;SDS011;50739;45.670;11.936;2024-01-07T05:26:00;0.50;;;0.40;;
62475;SDS011;50739;45.670;11.936;2024-01-07T05:31:03;1.00;;;0.30;;
62475;SDS011;50739;45.670;11.936;2024-01-07T05:36:06;0.45;;;0.30;;
62475;SDS011;50739;45.670;11.936;2024-01-07T05:41:10;0.50;;;0.45;;
62475;SDS011;50739;45.670;11.936;2024-01-07T05:46:12;0.80;;;0.40;;
62475;SDS011;50739;45.670;11.936;2024-01-07T05:51:15;0.45;;;0.40;;
62475;SDS011;50739;45.670;11.936;2024-01-07T05:56:19;0.50;;;0.40;;
62475;SDS011;50739;45.670;11.936;2024-01-07T06:01:21;1.02;;;0.65;;
62475;SDS011;50739;45.670;11.936;2024-01-07T06:06:24;1.35;;;0.40;;
62475;SDS011;50739;45.670;11.936;2024-01-07T06:11:27;2.43;;;2.23;;
62475;SDS011;50739;45.670;11.936;2024-01-07T06:16:30;0.40;;;0.40;;
62475;SDS011;50739;45.670;11.936;2024-01-07T06:21:32;1.80;;;0.70;;
62475;SDS011;50739;45.670;11.936;2024-01-07T06:26:36;0.93;;;0.50;;
62475;SDS011;50739;45.670;11.936;2024-01-07T06:31:42;0.30;;;0.30;;
62475;SDS011;50739;45.670;11.936;2024-01-07T06:36:45;0.40;;;0.40;;
62475;SDS011;50739;45.670;11.936;2024-01-07T06:41:49;1.58;;;0.50;;
62475;SDS011;50739;45.670;11.936;2024-01-07T06:46:51;1.10;;;0.53;;
62475;SDS011;50739;45.670;11.936;2024-01-07T06:51:54;1.00;;;0.70;;
62475;SDS011;50739;45.670;11.936;2024-01-07T06:56:57;1.10;;;0.70;;
62475;SDS011;50739;45.670;11.936;2024-01-07T07:02:00;0.97;;;0.83;;
62475;SDS011;50739;45.670;11.936;2024-01-07T07:07:02;1.80;;;0.63;;
62475;SDS011;50739;45.670;11.936;2024-01-07T07:12:06;1.48;;;0.90;;
62475;SDS011;50739;45.670;11.936;2024-01-07T07:17:09;1.17;;;0.73;;
62475;SDS011;50739;45.670;11.936;2024-01-07T07:22:11;0.85;;;0.70;;
62475;SDS011;50739;45.670;11.936;2024-01-07T07:27:16;1.10;;;0.80;;
62475;SDS011;50739;45.670;11.936;2024-01-07T07:32:19;0.70;;;0.70;;
62475;SDS011;50739;45.670;11.936;2024-01-07T07:37:21;1.50;;;0.95;;
62475;SDS011;50739;45.670;11.936;2024-01-07T07:42:25;1.27;;;1.08;;
62475;SDS011;50739;45.670;11.936;2024-01-07T07:47:28;1.13;;;0.95;;
62475;SDS011;50739;45.670;11.936;2024-01-07T07:52:30;1.20;;;1.10;;
62475;SDS011;50739;45.670;11.936;2024-01-07T07:57:34;1.25;;;1.02;;
62475;SDS011;50739;45.670;11.936;2024-01-07T08:02:36;1.42;;;0.70;;
62475;SDS011;50739;45.670;11.936;2024-01-07T08:07:38;1.50;;;0.90;;
62475;SDS011;50739;45.670;11.936;2024-01-07T08:12:42;0.70;;;0.70;;
62475;SDS011;50739;45.670;11.936;2024-01-07T08:17:45;2.40;;;1.10;;
62475;SDS011;50739;45.670;11.936;2024-01-07T08:22:47;0.73;;;0.70;;
62475;SDS011;50739;45.670;11.936;2024-01-07T08:27:52;0.80;;;0.63;;
62475;SDS011;50739;45.670;11.936;2024-01-07T08:32:54;1.08;;;0.40;;
62475;SDS011;50739;45.670;11.936;2024-01-07T08:37:56;1.03;;;0.50;;
62475;SDS011;50739;45.670;11.936;2024-01-07T08:43:00;0.65;;;0.40;;
62475;SDS011;50739;45.670;11.936;2024-01-07T08:48:04;0.80;;;0.70;;
62475;SDS011;50739;45.670;11.936;2024-01-07T08:53:07;1.15;;;0.60;;
62475;SDS011;50739;45.670;11.936;2024-01-07T08:58:11;0.55;;;0.50;;
62475;SDS011;50739;45.670;11.936;2024-01-07T09:03:15;1.35;;;0.50;;
62475;SDS011;50739;45.670;11.936;2024-01-07T09:08:18;0.50;;;0.40;;
62475;SDS011;50739;45.670;11.936;2024-01-07T09:13:22;0.60;;;0.40;;
62475;SDS011;50739;45.670;11.936;2024-01-07T09:18:24;1.17;;;0.47;;
62475;SDS011;50739;45.670;11.936;2024-01-07T09:23:27;1.17;;;0.75;;
62475;SDS011;50739;45.670;11.936;2024-01-07T09:28:31;0.90;;;0.60;;
62475;SDS011;50739;45.670;11.936;2024-01-07T09:33:33;1.83;;;0.70;;
62475;SDS011;50739;45.670;11.936;2024-01-07T09:38:35;1.20;;;0.70;;
62475;SDS011;50739;45.670;11.936;2024-01-07T09:43:39;0.37;;;0.33;;
62475;SDS011;50739;45.670;11.936;2024-01-07T09:48:41;0.80;;;0.30;;
62475;SDS011;50739;45.670;11.936;2024-01-07T09:53:44;0.50;;;0.30;;
62475;SDS011;50739;45.670;11.936;2024-01-07T09:58:51;0.50;;;0.50;;
62475;SDS011;50739;45.670;11.936;2024-01-07T10:03:54;2.28;;;0.50;;
62475;SDS011;50739;45.670;11.936;2024-01-07T10:08:58;2.13;;;1.27;;
62475;SDS011;50739;45.670;11.936;2024-01-07T10:14:02;2.58;;;1.30;;
62475;SDS011;50739;45.670;11.936;2024-01-07T10:19:04;3.73;;;2.20;;
62475;SDS011;50739;45.670;11.936;2024-01-07T10:24:08;3.63;;;2.50;;
62475;SDS011;50739;45.670;11.936;2024-01-07T10:29:13;3.17;;;2.30;;
62475;SDS011;50739;45.670;11.936;2024-01-07T10:34:16;3.33;;;2.47;;
62475;SDS011;50739;45.670;11.936;2024-01-07T10:39:20;4.43;;;2.90;;
62475;SDS011;50739;45.670;11.936;2024-01-07T10:44:24;4.73;;;3.40;;
62475;SDS011;50739;45.670;11.936;2024-01-07T10:49:27;5.75;;;3.60;;
62475;SDS011;50739;45.670;11.936;2024-01-07T10:54:35;6.50;;;4.70;;
62475;SDS011;50739;45.670;11.936;2024-01-07T10:59:40;7.30;;;5.55;;
62475;SDS011;50739;45.670;11.936;2024-01-07T11:04:45;11.30;;;6.90;;
62475;SDS011;50739;45.670;11.936;2024-01-07T11:10:01;12.20;;;7.85;;
62475;SDS011;50739;45.670;11.936;2024-01-07T11:15:09;15.90;;;8.80;;
62475;SDS011;50739;45.670;11.936;2024-01-07T11:20:13;18.10;;;10.88;;
62475;SDS011;50739;45.670;11.936;2024-01-07T11:25:30;10.55;;;7.53;;
62475;SDS011;50739;45.670;11.936;2024-01-07T11:30:39;10.70;;;7.13;;
62475;SDS011;50739;45.670;11.936;2024-01-07T11:35:55;8.52;;;6.25;;
62475;SDS011;50739;45.670;11.936;2024-01-07T11:40:58;10.70;;;6.83;;
62475;SDS011;50739;45.670;11.936;2024-01-07T11:46:05;15.00;;;9.50;;
62475;SDS011;50739;45.670;11.936;2024-01-07T11:51:07;10.38;;;7.35;;
62475;SDS011;50739;45.670;11.936;2024-01-07T11:56:10;10.43;;;7.35;;
62475;SDS011;50739;45.670;11.936;2024-01-07T12:01:15;13.93;;;9.52;;
62475;SDS011;50739;45.670;11.936;2024-01-07T12:06:18;11.77;;;8.23;;
62475;SDS011;50739;45.670;11.936;2024-01-07T12:11:29;13.27;;;8.43;;
62475;SDS011;50739;45.670;11.936;2024-01-07T12:16:33;18.25;;;10.82;;
62475;SDS011;50739;45.670;11.936;2024-01-07T12:21:38;22.88;;;14.50;;
62475;SDS011;50739;45.670;11.936;2024-01-07T12:26:46;16.73;;;11.75;;
62475;SDS011;50739;45.670;11.936;2024-01-07T12:31:51;15.77;;;10.55;;
62475;SDS011;50739;45.670;11.936;2024-01-07T12:37:06;16.98;;;11.80;;
62475;SDS011;50739;45.670;11.936;2024-01-07T12:42:15;21.80;;;14.27;;
62475;SDS011;50739;45.670;11.936;2024-01-07T12:47:23;20.23;;;12.93;;
62475;SDS011;50739;45.670;11.936;2024-01-07T12:52:25;19.15;;;12.05;;
62475;SDS011;50739;45.670;11.936;2024-01-07T12:57:29;64.60;;;28.25;;
62475;SDS011;50739;45.670;11.936;2024-01-07T13:02:32;50.70;;;22.95;;
62475;SDS011;50739;45.670;11.936;2024-01-07T13:07:36;32.70;;;19.35;;
62475;SDS011;50739;45.670;11.936;2024-01-07T13:12:39;37.55;;;18.85;;
62475;SDS011;50739;45.670;11.936;2024-01-07T13:17:45;28.60;;;16.73;;
62475;SDS011;50739;45.670;11.936;2024-01-07T13:22:48;20.20;;;12.43;;
62475;SDS011;50739;45.670;11.936;2024-01-07T13:27:50;14.40;;;9.23;;
62475;SDS011;50739;45.670;11.936;2024-01-07T13:32:56;9.02;;;6.35;;
62475;SDS011;50739;45.670;11.936;2024-01-07T13:38:01;7.38;;;5.40;;
62475;SDS011;50739;45.670;11.936;2024-01-07T13:43:15;8.23;;;6.40;;
62475;SDS011;50739;45.670;11.936;2024-01-07T13:48:19;18.40;;;12.25;;
62475;SDS011;50739;45.670;11.936;2024-01-07T13:53:25;19.48;;;14.82;;
62475;SDS011;50739;45.670;11.936;2024-01-07T13:58:29;11.03;;;7.53;;
62475;SDS011;50739;45.670;11.936;2024-01-07T14:03:40;13.00;;;9.00;;
62475;SDS011;50739;45.670;11.936;2024-01-07T14:08:42;13.00;;;9.77;;
62475;SDS011;50739;45.670;11.936;2024-01-07T14:13:45;13.80;;;10.55;;
62475;SDS011;50739;45.670;11.936;2024-01-07T14:18:48;13.88;;;10.73;;
62475;SDS011;50739;45.670;11.936;2024-01-07T14:23:51;14.93;;;10.87;;
62475;SDS011;50739;45.670;11.936;2024-01-07T14:28:54;16.65;;;12.18;;
62475;SDS011;50739;45.670;11.936;2024-01-07T14:33:57;15.10;;;10.82;;
62475;SDS011;50739;45.670;11.936;2024-01-07T14:39:00;13.37;;;10.17;;
62475;SDS011;50739;45.670;11.936;2024-01-07T14:44:03;15.43;;;10.32;;
62475;SDS011;50739;45.670;11.936;2024-01-07T14:49:07;17.63;;;11.98;;
62475;SDS011;50739;45.670;11.936;2024-01-07T14:54:09;16.45;;;12.43;;
62475;SDS011;50739;45.670;11.936;2024-01-07T14:59:12;17.88;;;13.18;;
62475;SDS011;50739;45.670;11.936;2024-01-07T15:04:16;20.42;;;13.30;;
62475;SDS011;50739;45.670;11.936;2024-01-07T15:09:18;17.90;;;12.77;;
62475;SDS011;50739;45.670;11.936;2024-01-07T15:14:21;17.87;;;12.83;;
62475;SDS011;50739;45.670;11.936;2024-01-07T15:19:25;14.50;;;10.30;;
62475;SDS011;50739;45.670;11.936;2024-01-07T15:24:28;14.02;;;9.00;;
62475;SDS011;50739;45.670;11.936;2024-01-07T15:29:31;14.20;;;9.70;;
62475;SDS011;50739;45.670;11.936;2024-01-07T15:34:35;11.87;;;8.10;;
62475;SDS011;50739;45.670;11.936;2024-01-07T15:39:37;10.68;;;7.35;;
62475;SDS011;50739;45.670;11.936;2024-01-07T15:44:40;9.55;;;6.63;;
62475;SDS011;50739;45.670;11.936;2024-01-07T15:49:43;9.02;;;6.50;;
62475;SDS011;50739;45.670;11.936;2024-01-07T15:54:46;11.02;;;7.82;;
62475;SDS011;50739;45.670;11.936;2024-01-07T15:59:53;8.00;;;4.93;;
62475;SDS011;50739;45.670;11.936;2024-01-07T16:05:07;7.55;;;5.47;;
62475;SDS011;50739;45.670;11.936;2024-01-07T16:10:23;8.13;;;4.75;;
62475;SDS011;50739;45.670;11.936;2024-01-07T16:15:32;5.95;;;4.45;;
62475;SDS011;50739;45.670;11.936;2024-01-07T16:20:37;9.27;;;5.20;;
62475;SDS011;50739;45.670;11.936;2024-01-07T16:25:45;8.43;;;5.78;;
62475;SDS011;50739;45.670;11.936;2024-01-07T16:31:05;9.30;;;5.47;;
62475;SDS011;50739;45.670;11.936;2024-01-07T16:36:17;9.90;;;5.53;;
62475;SDS011;50739;45.670;11.936;2024-01-07T16:41:20;10.73;;;6.00;;
62475;SDS011;50739;45.670;11.936;2024-01-07T16:46:24;12.20;;;8.17;;
62475;SDS011;50739;45.670;11.936;2024-01-07T16:51:28;12.70;;;8.30;;
62475;SDS011;50739;45.670;11.936;2024-01-07T16:56:31;20.10;;;12.68;;
62475;SDS011;50739;45.670;11.936;2024-01-07T17:01:34;20.25;;;12.63;;
62475;SDS011;50739;45.670;11.936;2024-01-07T17:06:38;26.97;;;15.80;;
62475;SDS011;50739;45.670;11.936;2024-01-07T17:11:41;21.90;;;12.97;;
62475;SDS011;50739;45.670;11.936;2024-01-07T17:16:44;24.52;;;15.27;;
62475;SDS011;50739;45.670;11.936;2024-01-07T17:21:48;31.95;;;19.20;;
62475;SDS011;50739;45.670;11.936;2024-01-07T17:26:52;31.75;;;20.40;;
62475;SDS011;50739;45.670;11.936;2024-01-07T17:31:54;22.80;;;15.82;;
62475;SDS011;50739;45.670;11.936;2024-01-07T17:36:58;26.60;;;18.17;;
62475;SDS011;50739;45.670;11.936;2024-01-07T17:42:04;26.33;;;18.33;;
62475;SDS011;50739;45.670;11.936;2024-01-07T17:47:16;28.77;;;19.17;;
62475;SDS011;50739;45.670;11.936;2024-01-07T17:52:23;26.43;;;18.10;;
62475;SDS011;50739;45.670;11.936;2024-01-07T17:57:27;30.23;;;19.53;;
62475;SDS011;50739;45.670;11.936;2024-01-07T18:02:33;31.73;;;20.20;;
62475;SDS011;50739;45.670;11.936;2024-01-07T18:07:38;30.40;;;19.83;;
62475;SDS011;50739;45.670;11.936;2024-01-07T18:12:40;31.67;;;19.50;;
62475;SDS011;50739;45.670;11.936;2024-01-07T18:17:45;31.92;;;20.27;;
62475;SDS011;50739;45.670;11.936;2024-01-07T18:22:49;30.90;;;18.67;;
62475;SDS011;50739;45.670;11.936;2024-01-07T18:27:52;29.30;;;19.10;;
62475;SDS011;50739;45.670;11.936;2024-01-07T18:32:54;29.53;;;19.07;;
62475;SDS011;50739;45.670;11.936;2024-01-07T18:38:01;31.80;;;20.98;;
62475;SDS011;50739;45.670;11.936;2024-01-07T18:43:10;28.80;;;19.42;;
62475;SDS011;50739;45.670;11.936;2024-01-07T18:48:21;31.40;;;19.87;;
62475;SDS011;50739;45.670;11.936;2024-01-07T18:53:39;27.88;;;18.38;;
62475;SDS011;50739;45.670;11.936;2024-01-07T18:58:49;28.37;;;19.73;;
62475;SDS011;50739;45.670;11.936;2024-01-07T19:04:02;27.80;;;19.60;;
62475;SDS011;50739;45.670;11.936;2024-01-07T19:09:07;31.00;;;20.45;;
62475;SDS011;50739;45.670;11.936;2024-01-07T19:14:12;28.15;;;19.70;;
62475;SDS011;50739;45.670;11.936;2024-01-07T19:19:26;29.50;;;20.70;;
62475;SDS011;50739;45.670;11.936;2024-01-07T19:24:31;30.38;;;20.63;;
62475;SDS011;50739;45.670;11.936;2024-01-07T19:29:44;33.30;;;21.73;;
62475;SDS011;50739;45.670;11.936;2024-01-07T19:34:46;28.92;;;20.38;;
62475;SDS011;50739;45.670;11.936;2024-01-07T19:39:50;36.47;;;24.00;;
62475;SDS011;50739;45.670;11.936;2024-01-07T19:44:57;36.97;;;24.75;;
62475;SDS011;50739;45.670;11.936;2024-01-07T20:07:48;32.55;;;20.88;;
62475;SDS011;50739;45.670;11.936;2024-01-07T20:12:55;30.85;;;21.58;;
62475;SDS011;50739;45.670;11.936;2024-01-07T20:18:09;29.23;;;20.20;;
62475;SDS011;50739;45.670;11.936;2024-01-07T20:23:18;28.10;;;20.05;;
62475;SDS011;50739;45.670;11.936;2024-01-07T20:28:24;29.05;;;19.92;;
62475;SDS011;50739;45.670;11.936;2024-01-07T20:33:35;28.48;;;19.35;;
62475;SDS011;50739;45.670;11.936;2024-01-07T20:38:42;28.27;;;19.88;;
62475;SDS011;50739;45.670;11.936;2024-01-07T20:43:56;27.10;;;19.77;;
62475;SDS011;50739;45.670;11.936;2024-01-07T20:49:02;30.27;;;21.40;;
62475;SDS011;50739;45.670;11.936;2024-01-07T20:54:06;31.25;;;22.02;;
62475;SDS011;50739;45.670;11.936;2024-01-07T20:59:12;33.42;;;22.92;;
62475;SDS011;50739;45.670;11.936;2024-01-07T21:04:32;33.92;;;22.30;;
62475;SDS011;50739;45.670;11.936;2024-01-07T21:09:36;30.63;;;22.07;;
62475;SDS011;50739;45.670;11.936;2024-01-07T21:14:38;33.28;;;22.95;;
62475;SDS011;50739;45.670;11.936;2024-01-07T21:19:41;35.90;;;25.08;;
62475;SDS011;50739;45.670;11.936;2024-01-07T21:24:45;34.27;;;24.53;;
62475;SDS011;50739;45.670;11.936;2024-01-07T21:29:47;38.28;;;24.92;;
62475;SDS011;50739;45.670;11.936;2024-01-07T21:34:50;22.75;;;17.05;;
62475;SDS011;50739;45.670;11.936;2024-01-07T21:39:54;24.67;;;15.07;;
62475;SDS011;50739;45.670;11.936;2024-01-07T21:44:56;17.98;;;10.80;;
62475;SDS011;50739;45.670;11.936;2024-01-07T21:49:59;14.13;;;9.38;;
62475;SDS011;50739;45.670;11.936;2024-01-07T21:55:03;11.40;;;8.20;;
62475;SDS011;50739;45.670;11.936;2024-01-07T22:00:06;13.37;;;9.43;;
62475;SDS011;50739;45.670;11.936;2024-01-07T22:05:10;17.95;;;12.05;;
62475;SDS011;50739;45.670;11.936;2024-01-07T22:10:14;16.02;;;11.70;;
62475;SDS011;50739;45.670;11.936;2024-01-07T22:15:16;17.40;;;12.52;;
62475;SDS011;50739;45.670;11.936;2024-01-07T22:20:18;17.55;;;12.23;;
62475;SDS011;50739;45.670;11.936;2024-01-07T22:25:22;20.42;;;13.10;;
62475;SDS011;50739;45.670;11.936;2024-01-07T22:30:24;18.33;;;12.37;;
62475;SDS011;50739;45.670;11.936;2024-01-07T22:35:27;18.53;;;12.93;;
62475;SDS011;50739;45.670;11.936;2024-01-07T22:40:30;18.70;;;13.45;;
62475;SDS011;50739;45.670;11.936;2024-01-07T22:45:33;17.58;;;12.88;;
62475;SDS011;50739;45.670;11.936;2024-01-07T22:50:35;19.33;;;13.57;;
62475;SDS011;50739;45.670;11.936;2024-01-07T22:55:40;18.08;;;13.30;;
62475;SDS011;50739;45.670;11.936;2024-01-07T23:00:43;20.17;;;14.35;;
62475;SDS011;50739;45.670;11.936;2024-01-07T23:05:45;19.13;;;13.60;;
62475;SDS011;50739;45.670;11.936;2024-01-07T23:10:49;19.20;;;13.55;;
62475;SDS011;50739;45.670;11.936;2024-01-07T23:15:52;19.45;;;13.30;;
62475;SDS011;50739;45.670;11.936;2024-01-07T23:20:54;20.60;;;13.48;;
62475;SDS011;50739;45.670;11.936;2024-01-07T23:25:58;18.38;;;13.65;;
62475;SDS011;50739;45.670;11.936;2024-01-07T23:31:00;18.67;;;13.23;;
62475;SDS011;50739;45.670;11.936;2024-01-07T23:36:03;18.35;;;13.15;;
62475;SDS011;50739;45.670;11.936;2024-01-07T23:41:08;17.42;;;12.82;;
62475;SDS011;50739;45.670;11.936;2024-01-07T23:46:11;19.07;;;13.60;;
62475;SDS011;50739;45.670;11.936;2024-01-07T23:51:13;17.88;;;13.45;;
62475;SDS011;50739;45.670;11.936;2024-01-07T23:56:17;19.17;;;13.13;;
